sensor_id;sensor_type;location;lat;lon;timestamp;temperature;humidity
46758;DHT22;32509;47.750;-3.396;2023-01-24T00:01:23;6.50;99.90
46758;DHT22;32509;47.750;-3.396;2023-01-24T00:03:49;6.60;99.90
46758;DHT22;32509;47.750;-3.396;2023-01-24T00:06:15;6.50;99.90
46758;DHT22;32509;47.750;-3.396;2023-01-24T00:08:41;6.50;99.90
46758;DHT22;32509;47.750;-3.396;2023-01-24T00:11:08;6.50;99.90
46758;DHT22;32509;47.750;-3.396;2023-01-24T00:13:35;6.50;99.90
46758;DHT22;32509;47.750;-3.396;2023-01-24T00:16:06;6.50;99.90
46758;DHT22;32509;47.750;-3.396;2023-01-24T00:18:32;6.40;99.90
46758;DHT22;32509;47.750;-3.396;2023-01-24T00:21:07;6.30;99.90
46758;DHT22;32509;47.750;-3.396;2023-01-24T00:23:41;6.30;99.90
46758;DHT22;32509;47.750;-3.396;2023-01-24T00:26:07;6.30;99.90
46758;DHT22;32509;47.750;-3.396;2023-01-24T00:28:33;6.30;99.90
46758;DHT22;32509;47.750;-3.396;2023-01-24T00:30:59;6.30;99.90
46758;DHT22;32509;47.750;-3.396;2023-01-24T00:33:25;6.30;99.90
46758;DHT22;32509;47.750;-3.396;2023-01-24T00:35:51;6.30;99.90
46758;DHT22;32509;47.750;-3.396;2023-01-24T00:38:18;6.40;99.90
46758;DHT22;32509;47.750;-3.396;2023-01-24T00:40:44;6.40;99.90
46758;DHT22;32509;47.750;-3.396;2023-01-24T00:43:10;6.30;99.90
46758;DHT22;32509;47.750;-3.396;2023-01-24T00:45:37;6.40;99.90
46758;DHT22;32509;47.750;-3.396;2023-01-24T00:48:06;6.40;99.90
46758;DHT22;32509;47.750;-3.396;2023-01-24T00:50:33;6.40;99.90
46758;DHT22;32509;47.750;-3.396;2023-01-24T00:53:00;6.40;99.90
46758;DHT22;32509;47.750;-3.396;2023-01-24T00:55:26;6.40;99.90
46758;DHT22;32509;47.750;-3.396;2023-01-24T00:57:52;6.40;99.90
46758;DHT22;32509;47.750;-3.396;2023-01-24T01:00:18;6.50;99.90
46758;DHT22;32509;47.750;-3.396;2023-01-24T01:02:44;6.50;99.90
46758;DHT22;32509;47.750;-3.396;2023-01-24T01:05:09;6.40;99.90
46758;DHT22;32509;47.750;-3.396;2023-01-24T01:07:35;6.40;99.90
46758;DHT22;32509;47.750;-3.396;2023-01-24T01:10:02;6.40;99.90
46758;DHT22;32509;47.750;-3.396;2023-01-24T01:12:28;6.40;99.90
46758;DHT22;32509;47.750;-3.396;2023-01-24T01:14:53;6.50;99.90
46758;DHT22;32509;47.750;-3.396;2023-01-24T01:17:19;6.50;99.90
46758;DHT22;32509;47.750;-3.396;2023-01-24T01:19:45;6.50;99.90
46758;DHT22;32509;47.750;-3.396;2023-01-24T01:22:11;6.50;99.90
46758;DHT22;32509;47.750;-3.396;2023-01-24T01:24:36;6.60;99.90
46758;DHT22;32509;47.750;-3.396;2023-01-24T01:27:02;6.50;99.90
46758;DHT22;32509;47.750;-3.396;2023-01-24T01:29:28;6.50;99.90
46758;DHT22;32509;47.750;-3.396;2023-01-24T01:31:54;6.50;99.90
46758;DHT22;32509;47.750;-3.396;2023-01-24T01:34:19;6.50;99.90
46758;DHT22;32509;47.750;-3.396;2023-01-24T01:36:45;6.50;99.90
46758;DHT22;32509;47.750;-3.396;2023-01-24T01:39:11;6.50;99.90
46758;DHT22;32509;47.750;-3.396;2023-01-24T01:41:37;6.50;99.90
46758;DHT22;32509;47.750;-3.396;2023-01-24T01:47:19;6.40;99.90
46758;DHT22;32509;47.750;-3.396;2023-01-24T01:50:05;6.40;99.90
46758;DHT22;32509;47.750;-3.396;2023-01-24T01:52:39;6.40;99.90
46758;DHT22;32509;47.750;-3.396;2023-01-24T01:55:14;6.30;99.90
46758;DHT22;32509;47.750;-3.396;2023-01-24T01:57:41;6.30;99.90
46758;DHT22;32509;47.750;-3.396;2023-01-24T02:00:14;6.30;99.90
46758;DHT22;32509;47.750;-3.396;2023-01-24T02:02:54;6.30;99.90
46758;DHT22;32509;47.750;-3.396;2023-01-24T02:05:41;6.30;99.90
46758;DHT22;32509;47.750;-3.396;2023-01-24T02:08:08;6.40;99.90
46758;DHT22;32509;47.750;-3.396;2023-01-24T02:10:37;6.50;99.90
46758;DHT22;32509;47.750;-3.396;2023-01-24T02:13:22;6.50;99.90
46758;DHT22;32509;47.750;-3.396;2023-01-24T02:15:49;6.40;99.90
46758;DHT22;32509;47.750;-3.396;2023-01-24T02:18:30;6.40;99.90
46758;DHT22;32509;47.750;-3.396;2023-01-24T02:20:57;6.30;99.90
46758;DHT22;32509;47.750;-3.396;2023-01-24T02:26:13;6.40;99.90
46758;DHT22;32509;47.750;-3.396;2023-01-24T02:28:53;6.40;99.90
46758;DHT22;32509;47.750;-3.396;2023-01-24T02:31:20;6.30;99.90
46758;DHT22;32509;47.750;-3.396;2023-01-24T02:33:46;6.30;99.90
46758;DHT22;32509;47.750;-3.396;2023-01-24T02:39:04;6.40;99.90
46758;DHT22;32509;47.750;-3.396;2023-01-24T02:41:38;6.50;99.90
46758;DHT22;32509;47.750;-3.396;2023-01-24T02:44:10;6.50;99.90
46758;DHT22;32509;47.750;-3.396;2023-01-24T02:46:38;6.50;99.90
46758;DHT22;32509;47.750;-3.396;2023-01-24T02:49:09;6.50;99.90
46758;DHT22;32509;47.750;-3.396;2023-01-24T02:51:35;6.60;99.90
46758;DHT22;32509;47.750;-3.396;2023-01-24T02:54:19;6.60;99.90
46758;DHT22;32509;47.750;-3.396;2023-01-24T02:56:45;6.60;99.90
46758;DHT22;32509;47.750;-3.396;2023-01-24T02:59:29;6.50;99.90
46758;DHT22;32509;47.750;-3.396;2023-01-24T03:01:55;6.50;99.90
46758;DHT22;32509;47.750;-3.396;2023-01-24T03:04:21;6.50;99.90
46758;DHT22;32509;47.750;-3.396;2023-01-24T03:06:47;6.60;99.90
46758;DHT22;32509;47.750;-3.396;2023-01-24T03:09:14;6.60;99.90
46758;DHT22;32509;47.750;-3.396;2023-01-24T03:11:48;6.60;99.90
46758;DHT22;32509;47.750;-3.396;2023-01-24T03:14:16;6.60;99.90
46758;DHT22;32509;47.750;-3.396;2023-01-24T03:17:00;6.60;99.90
46758;DHT22;32509;47.750;-3.396;2023-01-24T03:19:45;6.50;99.90
46758;DHT22;32509;47.750;-3.396;2023-01-24T03:22:29;6.40;99.90
46758;DHT22;32509;47.750;-3.396;2023-01-24T03:25:13;6.50;99.90
46758;DHT22;32509;47.750;-3.396;2023-01-24T03:28:05;6.40;99.90
46758;DHT22;32509;47.750;-3.396;2023-01-24T03:30:49;6.40;99.90
46758;DHT22;32509;47.750;-3.396;2023-01-24T03:33:33;6.40;99.90
46758;DHT22;32509;47.750;-3.396;2023-01-24T03:36:17;6.40;99.90
46758;DHT22;32509;47.750;-3.396;2023-01-24T03:38:45;6.40;99.90
46758;DHT22;32509;47.750;-3.396;2023-01-24T03:41:30;6.40;99.90
46758;DHT22;32509;47.750;-3.396;2023-01-24T03:43:55;6.30;99.90
46758;DHT22;32509;47.750;-3.396;2023-01-24T03:46:21;6.30;99.90
46758;DHT22;32509;47.750;-3.396;2023-01-24T03:48:47;6.20;99.90
46758;DHT22;32509;47.750;-3.396;2023-01-24T03:51:13;6.20;99.90
46758;DHT22;32509;47.750;-3.396;2023-01-24T03:53:57;6.20;99.90
46758;DHT22;32509;47.750;-3.396;2023-01-24T03:56:23;6.20;99.90
46758;DHT22;32509;47.750;-3.396;2023-01-24T03:58:49;6.20;99.90
46758;DHT22;32509;47.750;-3.396;2023-01-24T04:01:19;6.30;99.90
46758;DHT22;32509;47.750;-3.396;2023-01-24T04:03:45;6.30;99.90
46758;DHT22;32509;47.750;-3.396;2023-01-24T04:06:11;6.20;99.90
46758;DHT22;32509;47.750;-3.396;2023-01-24T04:08:36;6.30;99.90
46758;DHT22;32509;47.750;-3.396;2023-01-24T04:11:02;6.30;99.90
46758;DHT22;32509;47.750;-3.396;2023-01-24T04:13:28;6.30;99.90
46758;DHT22;32509;47.750;-3.396;2023-01-24T04:15:54;6.40;99.90
46758;DHT22;32509;47.750;-3.396;2023-01-24T04:18:19;6.40;99.90
46758;DHT22;32509;47.750;-3.396;2023-01-24T04:20:45;6.40;99.90
46758;DHT22;32509;47.750;-3.396;2023-01-24T04:23:11;6.40;99.90
46758;DHT22;32509;47.750;-3.396;2023-01-24T04:25:37;6.50;99.90
46758;DHT22;32509;47.750;-3.396;2023-01-24T04:28:03;6.50;99.90
46758;DHT22;32509;47.750;-3.396;2023-01-24T04:30:29;6.50;99.90
46758;DHT22;32509;47.750;-3.396;2023-01-24T04:32:55;6.40;99.90
46758;DHT22;32509;47.750;-3.396;2023-01-24T04:35:23;6.30;99.90
46758;DHT22;32509;47.750;-3.396;2023-01-24T04:37:50;6.30;99.90
46758;DHT22;32509;47.750;-3.396;2023-01-24T04:40:16;6.30;99.90
46758;DHT22;32509;47.750;-3.396;2023-01-24T04:42:42;6.20;99.90
46758;DHT22;32509;47.750;-3.396;2023-01-24T04:45:09;6.20;99.90
46758;DHT22;32509;47.750;-3.396;2023-01-24T04:47:35;6.30;99.90
46758;DHT22;32509;47.750;-3.396;2023-01-24T04:50:01;6.30;99.90
46758;DHT22;32509;47.750;-3.396;2023-01-24T04:52:27;6.30;99.90
46758;DHT22;32509;47.750;-3.396;2023-01-24T04:54:52;6.30;99.90
46758;DHT22;32509;47.750;-3.396;2023-01-24T04:57:18;6.40;99.90
46758;DHT22;32509;47.750;-3.396;2023-01-24T04:59:44;6.30;99.90
46758;DHT22;32509;47.750;-3.396;2023-01-24T05:02:10;6.30;99.90
46758;DHT22;32509;47.750;-3.396;2023-01-24T05:04:36;6.30;99.90
46758;DHT22;32509;47.750;-3.396;2023-01-24T05:07:02;6.30;99.90
46758;DHT22;32509;47.750;-3.396;2023-01-24T05:09:27;6.30;99.90
46758;DHT22;32509;47.750;-3.396;2023-01-24T05:11:53;6.30;99.90
46758;DHT22;32509;47.750;-3.396;2023-01-24T05:14:19;6.10;99.90
46758;DHT22;32509;47.750;-3.396;2023-01-24T05:16:45;6.20;99.90
46758;DHT22;32509;47.750;-3.396;2023-01-24T05:19:10;6.10;99.90
46758;DHT22;32509;47.750;-3.396;2023-01-24T05:21:36;6.10;99.90
46758;DHT22;32509;47.750;-3.396;2023-01-24T05:24:03;6.20;99.90
46758;DHT22;32509;47.750;-3.396;2023-01-24T05:26:29;6.20;99.90
46758;DHT22;32509;47.750;-3.396;2023-01-24T05:28:55;6.20;99.90
46758;DHT22;32509;47.750;-3.396;2023-01-24T05:31:21;6.30;99.90
46758;DHT22;32509;47.750;-3.396;2023-01-24T05:33:47;6.30;99.90
46758;DHT22;32509;47.750;-3.396;2023-01-24T05:36:18;6.30;99.90
46758;DHT22;32509;47.750;-3.396;2023-01-24T05:38:45;6.30;99.90
46758;DHT22;32509;47.750;-3.396;2023-01-24T05:41:12;6.30;99.90
46758;DHT22;32509;47.750;-3.396;2023-01-24T05:43:39;6.40;99.90
46758;DHT22;32509;47.750;-3.396;2023-01-24T05:46:12;6.40;99.90
46758;DHT22;32509;47.750;-3.396;2023-01-24T05:48:38;6.40;99.90
46758;DHT22;32509;47.750;-3.396;2023-01-24T05:51:06;6.30;99.90
46758;DHT22;32509;47.750;-3.396;2023-01-24T05:53:35;6.30;99.90
46758;DHT22;32509;47.750;-3.396;2023-01-24T05:56:03;6.30;99.90
46758;DHT22;32509;47.750;-3.396;2023-01-24T05:58:33;6.30;99.90
46758;DHT22;32509;47.750;-3.396;2023-01-24T06:00:59;6.40;99.90
46758;DHT22;32509;47.750;-3.396;2023-01-24T06:03:25;6.40;99.90
46758;DHT22;32509;47.750;-3.396;2023-01-24T06:05:52;6.40;99.90
46758;DHT22;32509;47.750;-3.396;2023-01-24T06:08:20;6.40;99.90
46758;DHT22;32509;47.750;-3.396;2023-01-24T06:10:46;6.50;99.90
46758;DHT22;32509;47.750;-3.396;2023-01-24T06:13:13;6.40;99.90
46758;DHT22;32509;47.750;-3.396;2023-01-24T06:15:39;6.40;99.90
46758;DHT22;32509;47.750;-3.396;2023-01-24T06:18:06;6.50;99.90
46758;DHT22;32509;47.750;-3.396;2023-01-24T06:20:32;6.60;99.90
46758;DHT22;32509;47.750;-3.396;2023-01-24T06:23:04;6.50;99.90
46758;DHT22;32509;47.750;-3.396;2023-01-24T06:25:30;6.50;99.90
46758;DHT22;32509;47.750;-3.396;2023-01-24T06:27:57;6.60;99.90
46758;DHT22;32509;47.750;-3.396;2023-01-24T06:30:22;6.60;99.90
46758;DHT22;32509;47.750;-3.396;2023-01-24T06:38:23;6.60;99.90
46758;DHT22;32509;47.750;-3.396;2023-01-24T06:40:56;6.60;99.90
46758;DHT22;32509;47.750;-3.396;2023-01-24T06:43:23;6.60;99.90
46758;DHT22;32509;47.750;-3.396;2023-01-24T06:45:49;6.60;99.90
46758;DHT22;32509;47.750;-3.396;2023-01-24T06:48:14;6.40;99.90
46758;DHT22;32509;47.750;-3.396;2023-01-24T06:50:40;6.40;99.90
46758;DHT22;32509;47.750;-3.396;2023-01-24T06:53:06;6.50;99.90
46758;DHT22;32509;47.750;-3.396;2023-01-24T06:55:35;6.40;99.90
46758;DHT22;32509;47.750;-3.396;2023-01-24T06:58:02;6.40;99.90
46758;DHT22;32509;47.750;-3.396;2023-01-24T07:00:29;6.40;99.90
46758;DHT22;32509;47.750;-3.396;2023-01-24T07:02:59;6.40;99.90
46758;DHT22;32509;47.750;-3.396;2023-01-24T07:05:25;6.40;99.90
46758;DHT22;32509;47.750;-3.396;2023-01-24T07:07:51;6.40;99.90
46758;DHT22;32509;47.750;-3.396;2023-01-24T07:10:18;6.40;99.90
46758;DHT22;32509;47.750;-3.396;2023-01-24T07:12:43;6.40;99.90
46758;DHT22;32509;47.750;-3.396;2023-01-24T07:15:10;6.40;99.90
46758;DHT22;32509;47.750;-3.396;2023-01-24T07:17:36;6.50;99.90
46758;DHT22;32509;47.750;-3.396;2023-01-24T07:20:02;6.50;99.90
46758;DHT22;32509;47.750;-3.396;2023-01-24T07:22:28;6.50;99.90
46758;DHT22;32509;47.750;-3.396;2023-01-24T07:24:55;6.50;99.90
46758;DHT22;32509;47.750;-3.396;2023-01-24T07:27:22;6.50;99.90
46758;DHT22;32509;47.750;-3.396;2023-01-24T07:29:48;6.50;99.90
46758;DHT22;32509;47.750;-3.396;2023-01-24T07:32:14;6.50;99.90
46758;DHT22;32509;47.750;-3.396;2023-01-24T07:34:39;6.60;99.90
46758;DHT22;32509;47.750;-3.396;2023-01-24T07:37:06;6.60;99.90
46758;DHT22;32509;47.750;-3.396;2023-01-24T07:39:33;6.60;99.90
46758;DHT22;32509;47.750;-3.396;2023-01-24T07:41:58;6.60;99.90
46758;DHT22;32509;47.750;-3.396;2023-01-24T07:44:24;6.50;99.90
46758;DHT22;32509;47.750;-3.396;2023-01-24T07:46:50;6.60;99.90
46758;DHT22;32509;47.750;-3.396;2023-01-24T07:49:16;6.60;99.90
46758;DHT22;32509;47.750;-3.396;2023-01-24T07:51:41;6.50;99.90
46758;DHT22;32509;47.750;-3.396;2023-01-24T07:54:07;6.50;99.90
46758;DHT22;32509;47.750;-3.396;2023-01-24T07:56:33;6.60;99.90
46758;DHT22;32509;47.750;-3.396;2023-01-24T07:58:59;6.60;99.90
46758;DHT22;32509;47.750;-3.396;2023-01-24T08:01:26;6.50;99.90
46758;DHT22;32509;47.750;-3.396;2023-01-24T08:03:56;6.50;99.90
46758;DHT22;32509;47.750;-3.396;2023-01-24T08:06:23;6.40;99.90
46758;DHT22;32509;47.750;-3.396;2023-01-24T08:08:49;6.50;99.90
46758;DHT22;32509;47.750;-3.396;2023-01-24T08:11:15;6.50;99.90
46758;DHT22;32509;47.750;-3.396;2023-01-24T08:13:44;6.60;99.90
46758;DHT22;32509;47.750;-3.396;2023-01-24T08:16:10;6.60;99.90
46758;DHT22;32509;47.750;-3.396;2023-01-24T08:18:39;6.60;99.90
46758;DHT22;32509;47.750;-3.396;2023-01-24T08:21:06;6.60;99.90
46758;DHT22;32509;47.750;-3.396;2023-01-24T08:23:33;6.50;99.90
46758;DHT22;32509;47.750;-3.396;2023-01-24T08:25:59;6.60;99.90
46758;DHT22;32509;47.750;-3.396;2023-01-24T08:28:26;6.50;99.90
46758;DHT22;32509;47.750;-3.396;2023-01-24T08:30:52;6.50;99.90
46758;DHT22;32509;47.750;-3.396;2023-01-24T08:33:17;6.60;99.90
46758;DHT22;32509;47.750;-3.396;2023-01-24T08:35:47;6.60;99.90
46758;DHT22;32509;47.750;-3.396;2023-01-24T08:38:14;6.60;99.90
46758;DHT22;32509;47.750;-3.396;2023-01-24T08:40:42;6.70;99.90
46758;DHT22;32509;47.750;-3.396;2023-01-24T08:43:08;6.70;99.90
46758;DHT22;32509;47.750;-3.396;2023-01-24T08:45:34;6.70;99.90
46758;DHT22;32509;47.750;-3.396;2023-01-24T08:47:59;6.70;99.90
46758;DHT22;32509;47.750;-3.396;2023-01-24T08:50:26;6.70;99.90
46758;DHT22;32509;47.750;-3.396;2023-01-24T08:52:54;6.70;99.90
46758;DHT22;32509;47.750;-3.396;2023-01-24T08:55:21;6.80;99.90
46758;DHT22;32509;47.750;-3.396;2023-01-24T08:57:47;6.70;99.90
46758;DHT22;32509;47.750;-3.396;2023-01-24T09:00:13;6.70;99.90
46758;DHT22;32509;47.750;-3.396;2023-01-24T09:02:39;6.70;99.90
46758;DHT22;32509;47.750;-3.396;2023-01-24T09:05:06;6.70;99.90
46758;DHT22;32509;47.750;-3.396;2023-01-24T09:07:33;6.70;99.90
46758;DHT22;32509;47.750;-3.396;2023-01-24T09:10:02;6.70;99.90
46758;DHT22;32509;47.750;-3.396;2023-01-24T09:12:28;6.70;99.90
46758;DHT22;32509;47.750;-3.396;2023-01-24T09:14:54;6.70;99.90
46758;DHT22;32509;47.750;-3.396;2023-01-24T09:17:19;6.70;99.90
46758;DHT22;32509;47.750;-3.396;2023-01-24T09:19:45;6.70;99.90
46758;DHT22;32509;47.750;-3.396;2023-01-24T09:22:11;6.70;99.90
46758;DHT22;32509;47.750;-3.396;2023-01-24T09:24:37;6.70;99.90
46758;DHT22;32509;47.750;-3.396;2023-01-24T09:27:02;6.70;99.90
46758;DHT22;32509;47.750;-3.396;2023-01-24T09:29:28;6.70;99.90
46758;DHT22;32509;47.750;-3.396;2023-01-24T09:31:54;6.70;99.90
46758;DHT22;32509;47.750;-3.396;2023-01-24T09:34:20;6.70;99.90
46758;DHT22;32509;47.750;-3.396;2023-01-24T09:36:49;6.80;99.90
46758;DHT22;32509;47.750;-3.396;2023-01-24T09:39:15;6.80;99.90
46758;DHT22;32509;47.750;-3.396;2023-01-24T09:42:12;6.80;99.90
46758;DHT22;32509;47.750;-3.396;2023-01-24T09:50:49;6.80;99.90
46758;DHT22;32509;47.750;-3.396;2023-01-24T09:53:46;6.80;99.90
46758;DHT22;32509;47.750;-3.396;2023-01-24T09:59:20;6.90;99.90
46758;DHT22;32509;47.750;-3.396;2023-01-24T10:01:48;6.90;99.90
46758;DHT22;32509;47.750;-3.396;2023-01-24T10:04:18;6.90;99.90
46758;DHT22;32509;47.750;-3.396;2023-01-24T10:09:43;6.80;99.90
46758;DHT22;32509;47.750;-3.396;2023-01-24T10:15:09;6.80;99.90
46758;DHT22;32509;47.750;-3.396;2023-01-24T10:25:33;6.80;99.90
46758;DHT22;32509;47.750;-3.396;2023-01-24T10:28:02;6.90;99.90
46758;DHT22;32509;47.750;-3.396;2023-01-24T10:31:27;6.90;99.90
46758;DHT22;32509;47.750;-3.396;2023-01-24T10:38:53;7.00;99.90
46758;DHT22;32509;47.750;-3.396;2023-01-24T10:41:22;7.00;99.90
46758;DHT22;32509;47.750;-3.396;2023-01-24T10:43:55;7.00;99.90
46758;DHT22;32509;47.750;-3.396;2023-01-24T10:49:23;6.90;99.90
46758;DHT22;32509;47.750;-3.396;2023-01-24T10:52:09;7.00;99.90
46758;DHT22;32509;47.750;-3.396;2023-01-24T10:55:02;7.00;99.90
46758;DHT22;32509;47.750;-3.396;2023-01-24T10:57:48;7.00;99.90
46758;DHT22;32509;47.750;-3.396;2023-01-24T11:02:53;7.20;99.90
46758;DHT22;32509;47.750;-3.396;2023-01-24T11:05:21;7.30;99.90
46758;DHT22;32509;47.750;-3.396;2023-01-24T11:07:52;7.20;99.90
46758;DHT22;32509;47.750;-3.396;2023-01-24T11:10:21;7.20;99.90
46758;DHT22;32509;47.750;-3.396;2023-01-24T11:12:55;7.20;99.90
46758;DHT22;32509;47.750;-3.396;2023-01-24T11:15:26;7.20;99.90
46758;DHT22;32509;47.750;-3.396;2023-01-24T11:18:07;7.20;99.90
46758;DHT22;32509;47.750;-3.396;2023-01-24T11:20:38;7.30;99.90
46758;DHT22;32509;47.750;-3.396;2023-01-24T11:23:16;7.40;99.90
46758;DHT22;32509;47.750;-3.396;2023-01-24T11:25:59;7.40;99.90
46758;DHT22;32509;47.750;-3.396;2023-01-24T11:31:22;7.30;99.90
46758;DHT22;32509;47.750;-3.396;2023-01-24T11:34:31;7.40;99.90
46758;DHT22;32509;47.750;-3.396;2023-01-24T11:55:59;7.50;99.90
46758;DHT22;32509;47.750;-3.396;2023-01-24T12:09:21;7.50;99.90
46758;DHT22;32509;47.750;-3.396;2023-01-24T12:22:48;7.60;99.90
46758;DHT22;32509;47.750;-3.396;2023-01-24T12:25:36;7.60;99.90
46758;DHT22;32509;47.750;-3.396;2023-01-24T12:28:12;7.60;99.90
46758;DHT22;32509;47.750;-3.396;2023-01-24T12:30:47;7.70;99.90
46758;DHT22;32509;47.750;-3.396;2023-01-24T12:36:39;7.70;99.90
46758;DHT22;32509;47.750;-3.396;2023-01-24T12:39:12;7.70;99.90
46758;DHT22;32509;47.750;-3.396;2023-01-24T12:41:40;7.70;99.90
46758;DHT22;32509;47.750;-3.396;2023-01-24T12:44:27;7.70;99.90
46758;DHT22;32509;47.750;-3.396;2023-01-24T12:50:09;7.80;99.90
46758;DHT22;32509;47.750;-3.396;2023-01-24T12:55:36;7.80;99.90
46758;DHT22;32509;47.750;-3.396;2023-01-24T12:58:34;7.90;99.90
46758;DHT22;32509;47.750;-3.396;2023-01-24T13:03:56;7.90;99.90
46758;DHT22;32509;47.750;-3.396;2023-01-24T13:07:31;7.90;99.90
46758;DHT22;32509;47.750;-3.396;2023-01-24T13:12:50;7.90;99.90
46758;DHT22;32509;47.750;-3.396;2023-01-24T13:15:31;7.90;99.90
46758;DHT22;32509;47.750;-3.396;2023-01-24T13:19:15;7.90;99.90
46758;DHT22;32509;47.750;-3.396;2023-01-24T13:21:20;8.00;99.90
46758;DHT22;32509;47.750;-3.396;2023-01-24T13:32:24;7.90;99.90
46758;DHT22;32509;47.750;-3.396;2023-01-24T13:34:56;8.00;99.90
46758;DHT22;32509;47.750;-3.396;2023-01-24T13:37:28;7.90;99.90
46758;DHT22;32509;47.750;-3.396;2023-01-24T13:40:06;8.00;99.90
46758;DHT22;32509;47.750;-3.396;2023-01-24T13:42:44;8.00;99.90
46758;DHT22;32509;47.750;-3.396;2023-01-24T13:48:00;8.00;99.90
46758;DHT22;32509;47.750;-3.396;2023-01-24T13:50:30;8.00;99.90
46758;DHT22;32509;47.750;-3.396;2023-01-24T13:52:57;7.90;99.90
46758;DHT22;32509;47.750;-3.396;2023-01-24T14:00:34;7.90;99.90
46758;DHT22;32509;47.750;-3.396;2023-01-24T14:22:01;7.80;99.90
46758;DHT22;32509;47.750;-3.396;2023-01-24T14:24:56;7.90;99.90
46758;DHT22;32509;47.750;-3.396;2023-01-24T14:27:26;7.80;99.90
46758;DHT22;32509;47.750;-3.396;2023-01-24T14:30:23;7.90;99.90
46758;DHT22;32509;47.750;-3.396;2023-01-24T14:32:57;7.90;99.90
46758;DHT22;32509;47.750;-3.396;2023-01-24T14:35:31;7.90;99.90
46758;DHT22;32509;47.750;-3.396;2023-01-24T14:38:16;7.90;99.90
46758;DHT22;32509;47.750;-3.396;2023-01-24T14:40:49;7.90;99.90
46758;DHT22;32509;47.750;-3.396;2023-01-24T14:43:16;7.90;99.90
46758;DHT22;32509;47.750;-3.396;2023-01-24T14:45:42;7.90;99.90
46758;DHT22;32509;47.750;-3.396;2023-01-24T14:48:12;7.90;99.90
46758;DHT22;32509;47.750;-3.396;2023-01-24T14:50:39;7.90;99.90
46758;DHT22;32509;47.750;-3.396;2023-01-24T14:53:25;7.90;99.90
46758;DHT22;32509;47.750;-3.396;2023-01-24T14:55:53;7.90;99.90
46758;DHT22;32509;47.750;-3.396;2023-01-24T14:58:25;7.90;99.90
46758;DHT22;32509;47.750;-3.396;2023-01-24T15:00:54;7.90;99.90
46758;DHT22;32509;47.750;-3.396;2023-01-24T15:03:25;7.80;99.90
46758;DHT22;32509;47.750;-3.396;2023-01-24T15:06:05;7.80;99.90
46758;DHT22;32509;47.750;-3.396;2023-01-24T15:08:32;7.80;99.90
46758;DHT22;32509;47.750;-3.396;2023-01-24T15:11:02;7.80;99.90
46758;DHT22;32509;47.750;-3.396;2023-01-24T15:13:35;7.80;99.90
46758;DHT22;32509;47.750;-3.396;2023-01-24T15:16:02;7.70;99.90
46758;DHT22;32509;47.750;-3.396;2023-01-24T15:18:41;7.60;99.90
46758;DHT22;32509;47.750;-3.396;2023-01-24T15:21:23;7.70;99.90
46758;DHT22;32509;47.750;-3.396;2023-01-24T15:23:53;7.60;99.90
46758;DHT22;32509;47.750;-3.396;2023-01-24T15:26:31;7.70;99.90
46758;DHT22;32509;47.750;-3.396;2023-01-24T15:28:58;7.70;99.90
46758;DHT22;32509;47.750;-3.396;2023-01-24T15:31:30;7.70;99.90
46758;DHT22;32509;47.750;-3.396;2023-01-24T15:33:58;7.60;99.90
46758;DHT22;32509;47.750;-3.396;2023-01-24T15:36:24;7.70;99.90
46758;DHT22;32509;47.750;-3.396;2023-01-24T15:38:53;7.70;99.90
46758;DHT22;32509;47.750;-3.396;2023-01-24T15:44:04;7.70;99.90
46758;DHT22;32509;47.750;-3.396;2023-01-24T15:49:25;7.70;99.90
46758;DHT22;32509;47.750;-3.396;2023-01-24T15:52:04;7.60;99.90
46758;DHT22;32509;47.750;-3.396;2023-01-24T15:54:31;7.60;99.90
46758;DHT22;32509;47.750;-3.396;2023-01-24T15:56:59;7.60;99.90
46758;DHT22;32509;47.750;-3.396;2023-01-24T15:59:26;7.60;99.90
46758;DHT22;32509;47.750;-3.396;2023-01-24T16:01:52;7.50;99.90
46758;DHT22;32509;47.750;-3.396;2023-01-24T16:04:21;7.50;99.90
46758;DHT22;32509;47.750;-3.396;2023-01-24T16:06:48;7.50;99.90
46758;DHT22;32509;47.750;-3.396;2023-01-24T16:09:14;7.50;99.90
46758;DHT22;32509;47.750;-3.396;2023-01-24T16:11:42;7.50;99.90
46758;DHT22;32509;47.750;-3.396;2023-01-24T16:14:14;7.50;99.90
46758;DHT22;32509;47.750;-3.396;2023-01-24T16:16:40;7.50;99.90
46758;DHT22;32509;47.750;-3.396;2023-01-24T16:19:25;7.50;99.90
46758;DHT22;32509;47.750;-3.396;2023-01-24T16:21:51;7.50;99.90
46758;DHT22;32509;47.750;-3.396;2023-01-24T16:24:17;7.50;99.90
46758;DHT22;32509;47.750;-3.396;2023-01-24T16:26:52;7.50;99.90
46758;DHT22;32509;47.750;-3.396;2023-01-24T16:29:28;7.50;99.90
46758;DHT22;32509;47.750;-3.396;2023-01-24T16:31:55;7.50;99.90
46758;DHT22;32509;47.750;-3.396;2023-01-24T16:34:21;7.60;99.90
46758;DHT22;32509;47.750;-3.396;2023-01-24T16:36:47;7.60;99.90
46758;DHT22;32509;47.750;-3.396;2023-01-24T16:39:16;7.60;99.90
46758;DHT22;32509;47.750;-3.396;2023-01-24T16:41:48;7.60;99.90
46758;DHT22;32509;47.750;-3.396;2023-01-24T16:44:15;7.60;99.90
46758;DHT22;32509;47.750;-3.396;2023-01-24T16:46:47;7.60;99.90
46758;DHT22;32509;47.750;-3.396;2023-01-24T16:49:14;7.60;99.90
46758;DHT22;32509;47.750;-3.396;2023-01-24T16:51:41;7.60;99.90
46758;DHT22;32509;47.750;-3.396;2023-01-24T16:54:07;7.50;99.90
46758;DHT22;32509;47.750;-3.396;2023-01-24T16:56:33;7.50;99.90
46758;DHT22;32509;47.750;-3.396;2023-01-24T16:58:59;7.50;99.90
46758;DHT22;32509;47.750;-3.396;2023-01-24T17:01:24;7.50;99.90
46758;DHT22;32509;47.750;-3.396;2023-01-24T17:03:51;7.40;99.90
46758;DHT22;32509;47.750;-3.396;2023-01-24T17:06:18;7.40;99.90
46758;DHT22;32509;47.750;-3.396;2023-01-24T17:08:48;7.40;99.90
46758;DHT22;32509;47.750;-3.396;2023-01-24T17:11:14;7.50;99.90
46758;DHT22;32509;47.750;-3.396;2023-01-24T17:13:41;7.50;99.90
46758;DHT22;32509;47.750;-3.396;2023-01-24T17:16:09;7.50;99.90
46758;DHT22;32509;47.750;-3.396;2023-01-24T17:18:36;7.50;99.90
46758;DHT22;32509;47.750;-3.396;2023-01-24T17:21:04;7.60;99.90
46758;DHT22;32509;47.750;-3.396;2023-01-24T17:23:31;7.40;99.90
46758;DHT22;32509;47.750;-3.396;2023-01-24T17:26:14;7.40;99.90
46758;DHT22;32509;47.750;-3.396;2023-01-24T17:28:41;7.40;99.90
46758;DHT22;32509;47.750;-3.396;2023-01-24T17:31:13;7.40;99.90
46758;DHT22;32509;47.750;-3.396;2023-01-24T17:33:39;7.40;99.90
46758;DHT22;32509;47.750;-3.396;2023-01-24T17:36:06;7.50;99.90
46758;DHT22;32509;47.750;-3.396;2023-01-24T17:38:32;7.40;99.90
46758;DHT22;32509;47.750;-3.396;2023-01-24T17:40:58;7.40;99.90
46758;DHT22;32509;47.750;-3.396;2023-01-24T17:43:24;7.40;99.90
46758;DHT22;32509;47.750;-3.396;2023-01-24T17:45:53;7.40;99.90
46758;DHT22;32509;47.750;-3.396;2023-01-24T17:48:20;7.40;99.90
46758;DHT22;32509;47.750;-3.396;2023-01-24T17:50:46;7.40;99.90
46758;DHT22;32509;47.750;-3.396;2023-01-24T17:53:13;7.40;99.90
46758;DHT22;32509;47.750;-3.396;2023-01-24T17:55:46;7.40;99.90
46758;DHT22;32509;47.750;-3.396;2023-01-24T17:58:12;7.40;99.90
46758;DHT22;32509;47.750;-3.396;2023-01-24T18:00:38;7.50;99.90
46758;DHT22;32509;47.750;-3.396;2023-01-24T18:03:05;7.40;99.90
46758;DHT22;32509;47.750;-3.396;2023-01-24T18:05:35;7.40;99.90
46758;DHT22;32509;47.750;-3.396;2023-01-24T18:08:03;7.40;99.90
46758;DHT22;32509;47.750;-3.396;2023-01-24T18:10:29;7.40;99.90
46758;DHT22;32509;47.750;-3.396;2023-01-24T18:12:54;7.50;99.90
46758;DHT22;32509;47.750;-3.396;2023-01-24T18:15:20;7.50;99.90